sensor_id;sensor_type;location;lat;lon;timestamp;temperature;humidity
40808;DHT22;26523;52.504;13.498;2023-04-29T00:00:42;11.80;99.90
40808;DHT22;26523;52.504;13.498;2023-04-29T00:03:07;11.80;99.90
40808;DHT22;26523;52.504;13.498;2023-04-29T00:05:33;11.80;99.90
40808;DHT22;26523;52.504;13.498;2023-04-29T00:08:00;11.80;99.90
40808;DHT22;26523;52.504;13.498;2023-04-29T00:10:25;11.80;99.90
40808;DHT22;26523;52.504;13.498;2023-04-29T00:12:51;11.80;99.90
40808;DHT22;26523;52.504;13.498;2023-04-29T00:15:17;11.80;99.90
40808;DHT22;26523;52.504;13.498;2023-04-29T00:17:42;11.80;99.90
40808;DHT22;26523;52.504;13.498;2023-04-29T00:20:10;11.80;99.90
40808;DHT22;26523;52.504;13.498;2023-04-29T00:22:36;11.70;99.90
40808;DHT22;26523;52.504;13.498;2023-04-29T00:25:03;11.70;99.90
40808;DHT22;26523;52.504;13.498;2023-04-29T00:27:29;11.70;99.90
40808;DHT22;26523;52.504;13.498;2023-04-29T00:29:55;11.70;99.90
40808;DHT22;26523;52.504;13.498;2023-04-29T00:32:21;11.60;99.90
40808;DHT22;26523;52.504;13.498;2023-04-29T00:34:48;11.60;99.90
40808;DHT22;26523;52.504;13.498;2023-04-29T00:37:13;11.60;99.90
40808;DHT22;26523;52.504;13.498;2023-04-29T00:39:39;11.60;99.90
40808;DHT22;26523;52.504;13.498;2023-04-29T00:42:05;11.60;99.90
40808;DHT22;26523;52.504;13.498;2023-04-29T00:44:31;11.60;99.90
40808;DHT22;26523;52.504;13.498;2023-04-29T00:46:56;11.60;99.90
40808;DHT22;26523;52.504;13.498;2023-04-29T00:49:23;11.50;99.90
40808;DHT22;26523;52.504;13.498;2023-04-29T00:51:49;11.50;99.90
40808;DHT22;26523;52.504;13.498;2023-04-29T00:54:15;11.50;99.90
40808;DHT22;26523;52.504;13.498;2023-04-29T00:56:44;11.40;99.90
40808;DHT22;26523;52.504;13.498;2023-04-29T00:59:10;11.40;99.90
40808;DHT22;26523;52.504;13.498;2023-04-29T01:01:37;11.40;99.90
40808;DHT22;26523;52.504;13.498;2023-04-29T01:04:04;11.30;99.90
40808;DHT22;26523;52.504;13.498;2023-04-29T01:15:21;11.40;99.90
40808;DHT22;26523;52.504;13.498;2023-04-29T01:18:03;11.40;99.90
40808;DHT22;26523;52.504;13.498;2023-04-29T01:20:30;11.50;99.90
40808;DHT22;26523;52.504;13.498;2023-04-29T01:22:56;11.40;99.90
40808;DHT22;26523;52.504;13.498;2023-04-29T01:25:21;11.40;99.90
40808;DHT22;26523;52.504;13.498;2023-04-29T01:33:08;11.10;99.90
40808;DHT22;26523;52.504;13.498;2023-04-29T01:38:59;10.60;99.90
40808;DHT22;26523;52.504;13.498;2023-04-29T01:41:12;10.40;99.90
40808;DHT22;26523;52.504;13.498;2023-04-29T01:43:39;10.40;99.90
40808;DHT22;26523;52.504;13.498;2023-04-29T01:46:08;10.30;99.90
40808;DHT22;26523;52.504;13.498;2023-04-29T01:48:35;10.30;99.90
40808;DHT22;26523;52.504;13.498;2023-04-29T01:51:01;10.20;99.90
40808;DHT22;26523;52.504;13.498;2023-04-29T01:53:27;10.30;99.90
40808;DHT22;26523;52.504;13.498;2023-04-29T01:55:53;10.20;99.90
40808;DHT22;26523;52.504;13.498;2023-04-29T01:58:18;10.20;99.90
40808;DHT22;26523;52.504;13.498;2023-04-29T02:00:44;10.20;99.90
40808;DHT22;26523;52.504;13.498;2023-04-29T02:03:10;10.30;99.90
40808;DHT22;26523;52.504;13.498;2023-04-29T02:05:36;10.20;99.90
40808;DHT22;26523;52.504;13.498;2023-04-29T02:08:02;10.20;99.90
40808;DHT22;26523;52.504;13.498;2023-04-29T02:10:27;10.20;99.90
40808;DHT22;26523;52.504;13.498;2023-04-29T02:12:53;10.20;99.90
40808;DHT22;26523;52.504;13.498;2023-04-29T02:15:19;10.20;99.90
40808;DHT22;26523;52.504;13.498;2023-04-29T02:17:45;10.30;99.90
40808;DHT22;26523;52.504;13.498;2023-04-29T02:20:12;10.20;99.90
40808;DHT22;26523;52.504;13.498;2023-04-29T02:22:37;10.20;99.90
40808;DHT22;26523;52.504;13.498;2023-04-29T02:25:03;10.30;99.90
40808;DHT22;26523;52.504;13.498;2023-04-29T02:27:30;10.30;99.90
40808;DHT22;26523;52.504;13.498;2023-04-29T02:29:56;10.40;99.90
40808;DHT22;26523;52.504;13.498;2023-04-29T02:32:22;10.40;99.90
40808;DHT22;26523;52.504;13.498;2023-04-29T02:34:47;10.40;99.90
40808;DHT22;26523;52.504;13.498;2023-04-29T02:37:13;10.40;99.90
40808;DHT22;26523;52.504;13.498;2023-04-29T02:39:40;10.40;99.90
40808;DHT22;26523;52.504;13.498;2023-04-29T02:42:06;10.40;99.90
40808;DHT22;26523;52.504;13.498;2023-04-29T02:44:32;10.40;99.90
40808;DHT22;26523;52.504;13.498;2023-04-29T02:46:57;10.40;99.90
40808;DHT22;26523;52.504;13.498;2023-04-29T02:49:23;10.40;99.90
40808;DHT22;26523;52.504;13.498;2023-04-29T02:51:49;10.30;99.90
40808;DHT22;26523;52.504;13.498;2023-04-29T02:54:15;10.40;99.90
40808;DHT22;26523;52.504;13.498;2023-04-29T02:56:41;10.30;99.90
40808;DHT22;26523;52.504;13.498;2023-04-29T02:59:08;10.40;99.90
40808;DHT22;26523;52.504;13.498;2023-04-29T03:01:34;10.40;99.90
40808;DHT22;26523;52.504;13.498;2023-04-29T03:04:00;10.40;99.90
40808;DHT22;26523;52.504;13.498;2023-04-29T03:06:25;10.40;99.90
40808;DHT22;26523;52.504;13.498;2023-04-29T03:08:52;10.40;99.90
40808;DHT22;26523;52.504;13.498;2023-04-29T03:11:18;10.50;99.90
40808;DHT22;26523;52.504;13.498;2023-04-29T03:13:44;10.50;99.90
40808;DHT22;26523;52.504;13.498;2023-04-29T03:16:11;10.50;99.90
40808;DHT22;26523;52.504;13.498;2023-04-29T03:18:38;10.50;99.90
40808;DHT22;26523;52.504;13.498;2023-04-29T03:21:05;10.50;99.90
40808;DHT22;26523;52.504;13.498;2023-04-29T03:23:30;10.60;99.90
40808;DHT22;26523;52.504;13.498;2023-04-29T03:25:56;10.60;99.90
40808;DHT22;26523;52.504;13.498;2023-04-29T03:28:22;10.60;99.90
40808;DHT22;26523;52.504;13.498;2023-04-29T03:30:48;10.60;99.90
40808;DHT22;26523;52.504;13.498;2023-04-29T03:33:14;10.70;99.90
40808;DHT22;26523;52.504;13.498;2023-04-29T03:35:39;10.70;99.90
40808;DHT22;26523;52.504;13.498;2023-04-29T03:38:05;10.70;99.90
40808;DHT22;26523;52.504;13.498;2023-04-29T03:40:31;10.70;99.90
40808;DHT22;26523;52.504;13.498;2023-04-29T03:42:56;10.70;99.90
40808;DHT22;26523;52.504;13.498;2023-04-29T03:45:22;10.70;99.90
40808;DHT22;26523;52.504;13.498;2023-04-29T03:47:48;10.70;99.90
40808;DHT22;26523;52.504;13.498;2023-04-29T03:50:13;10.70;99.90
40808;DHT22;26523;52.504;13.498;2023-04-29T03:59:13;10.70;99.90
40808;DHT22;26523;52.504;13.498;2023-04-29T04:01:39;10.70;99.90
40808;DHT22;26523;52.504;13.498;2023-04-29T04:04:04;10.70;99.90
40808;DHT22;26523;52.504;13.498;2023-04-29T04:06:30;10.80;99.90
40808;DHT22;26523;52.504;13.498;2023-04-29T04:08:56;10.80;99.90
40808;DHT22;26523;52.504;13.498;2023-04-29T04:11:21;10.80;99.90
40808;DHT22;26523;52.504;13.498;2023-04-29T04:13:47;10.80;99.90
40808;DHT22;26523;52.504;13.498;2023-04-29T04:16:14;10.80;99.90
40808;DHT22;26523;52.504;13.498;2023-04-29T04:18:39;10.80;99.90
40808;DHT22;26523;52.504;13.498;2023-04-29T04:21:09;10.80;99.90
40808;DHT22;26523;52.504;13.498;2023-04-29T04:23:36;10.90;99.90
40808;DHT22;26523;52.504;13.498;2023-04-29T04:26:04;10.90;99.90
40808;DHT22;26523;52.504;13.498;2023-04-29T04:28:30;10.90;99.90
40808;DHT22;26523;52.504;13.498;2023-04-29T04:30:56;11.00;99.90
40808;DHT22;26523;52.504;13.498;2023-04-29T04:33:23;11.00;99.90
40808;DHT22;26523;52.504;13.498;2023-04-29T04:35:49;11.00;99.90
40808;DHT22;26523;52.504;13.498;2023-04-29T04:44:58;11.20;99.90
40808;DHT22;26523;52.504;13.498;2023-04-29T04:57:30;11.30;99.90
40808;DHT22;26523;52.504;13.498;2023-04-29T04:59:56;11.30;99.90
40808;DHT22;26523;52.504;13.498;2023-04-29T05:02:22;11.40;99.90
40808;DHT22;26523;52.504;13.498;2023-04-29T05:04:47;11.30;99.90
40808;DHT22;26523;52.504;13.498;2023-04-29T05:13:38;11.40;99.90
40808;DHT22;26523;52.504;13.498;2023-04-29T05:16:04;11.40;99.90
40808;DHT22;26523;52.504;13.498;2023-04-29T05:18:30;11.40;99.90
40808;DHT22;26523;52.504;13.498;2023-04-29T05:28:09;11.40;99.90
40808;DHT22;26523;52.504;13.498;2023-04-29T05:30:38;11.40;99.90
40808;DHT22;26523;52.504;13.498;2023-04-29T05:33:03;11.50;99.90
40808;DHT22;26523;52.504;13.498;2023-04-29T05:35:29;11.50;99.90
40808;DHT22;26523;52.504;13.498;2023-04-29T05:37:56;11.50;99.90
40808;DHT22;26523;52.504;13.498;2023-04-29T05:40:22;11.50;99.90
40808;DHT22;26523;52.504;13.498;2023-04-29T05:42:47;11.50;99.90
40808;DHT22;26523;52.504;13.498;2023-04-29T05:55:03;11.70;99.90
40808;DHT22;26523;52.504;13.498;2023-04-29T05:57:29;11.70;99.90
40808;DHT22;26523;52.504;13.498;2023-04-29T05:59:55;11.70;99.90
40808;DHT22;26523;52.504;13.498;2023-04-29T06:02:21;11.70;99.90
40808;DHT22;26523;52.504;13.498;2023-04-29T06:04:47;11.70;99.90
40808;DHT22;26523;52.504;13.498;2023-04-29T06:07:13;11.70;99.90
40808;DHT22;26523;52.504;13.498;2023-04-29T06:09:39;11.70;99.90
40808;DHT22;26523;52.504;13.498;2023-04-29T06:12:05;11.70;99.90
40808;DHT22;26523;52.504;13.498;2023-04-29T06:14:31;11.70;99.90
40808;DHT22;26523;52.504;13.498;2023-04-29T06:16:56;11.80;99.90
40808;DHT22;26523;52.504;13.498;2023-04-29T06:19:22;11.80;99.90
40808;DHT22;26523;52.504;13.498;2023-04-29T06:21:49;11.80;99.90
40808;DHT22;26523;52.504;13.498;2023-04-29T06:24:15;11.80;99.90
40808;DHT22;26523;52.504;13.498;2023-04-29T06:40:04;12.00;99.90
40808;DHT22;26523;52.504;13.498;2023-04-29T06:42:29;11.90;99.90
40808;DHT22;26523;52.504;13.498;2023-04-29T06:44:55;12.00;99.90
40808;DHT22;26523;52.504;13.498;2023-04-29T06:47:21;12.00;99.90
40808;DHT22;26523;52.504;13.498;2023-04-29T06:49:47;12.00;99.90
40808;DHT22;26523;52.504;13.498;2023-04-29T06:58:48;12.10;99.90
40808;DHT22;26523;52.504;13.498;2023-04-29T07:01:13;12.10;99.90
40808;DHT22;26523;52.504;13.498;2023-04-29T07:03:39;12.20;99.90
40808;DHT22;26523;52.504;13.498;2023-04-29T07:06:05;12.10;99.90
40808;DHT22;26523;52.504;13.498;2023-04-29T07:08:31;12.20;99.90
40808;DHT22;26523;52.504;13.498;2023-04-29T07:21:03;12.20;99.90
40808;DHT22;26523;52.504;13.498;2023-04-29T07:23:29;12.30;99.90
40808;DHT22;26523;52.504;13.498;2023-04-29T07:25:55;12.30;99.90
40808;DHT22;26523;52.504;13.498;2023-04-29T07:28:21;12.30;99.90
40808;DHT22;26523;52.504;13.498;2023-04-29T07:30:47;12.40;99.90
40808;DHT22;26523;52.504;13.498;2023-04-29T07:33:13;12.30;99.90
40808;DHT22;26523;52.504;13.498;2023-04-29T07:35:39;12.30;99.90
40808;DHT22;26523;52.504;13.498;2023-04-29T07:38:07;12.30;99.90
40808;DHT22;26523;52.504;13.498;2023-04-29T07:40:33;12.30;99.90
40808;DHT22;26523;52.504;13.498;2023-04-29T07:46:21;12.30;99.90
40808;DHT22;26523;52.504;13.498;2023-04-29T07:48:46;12.30;99.90
40808;DHT22;26523;52.504;13.498;2023-04-29T07:51:13;12.30;99.90
40808;DHT22;26523;52.504;13.498;2023-04-29T07:53:39;12.30;99.90
40808;DHT22;26523;52.504;13.498;2023-04-29T07:56:08;12.40;99.90
40808;DHT22;26523;52.504;13.498;2023-04-29T07:58:33;12.50;99.90
40808;DHT22;26523;52.504;13.498;2023-04-29T08:04:49;12.40;99.90
40808;DHT22;26523;52.504;13.498;2023-04-29T08:07:15;12.40;99.90
40808;DHT22;26523;52.504;13.498;2023-04-29T08:09:41;12.40;99.90
40808;DHT22;26523;52.504;13.498;2023-04-29T08:12:07;12.40;99.90
40808;DHT22;26523;52.504;13.498;2023-04-29T08:14:32;12.40;99.90
40808;DHT22;26523;52.504;13.498;2023-04-29T08:16:58;12.40;99.90
40808;DHT22;26523;52.504;13.498;2023-04-29T08:19:27;12.30;99.90
40808;DHT22;26523;52.504;13.498;2023-04-29T08:21:53;12.40;99.90
40808;DHT22;26523;52.504;13.498;2023-04-29T08:24:18;12.40;99.90
40808;DHT22;26523;52.504;13.498;2023-04-29T08:26:46;12.30;99.90
40808;DHT22;26523;52.504;13.498;2023-04-29T08:29:12;12.40;99.90
40808;DHT22;26523;52.504;13.498;2023-04-29T08:31:38;12.30;99.90
40808;DHT22;26523;52.504;13.498;2023-04-29T08:34:03;12.20;99.90
40808;DHT22;26523;52.504;13.498;2023-04-29T08:36:29;12.20;99.90
40808;DHT22;26523;52.504;13.498;2023-04-29T08:38:55;12.30;99.90
40808;DHT22;26523;52.504;13.498;2023-04-29T08:41:20;12.30;99.90
40808;DHT22;26523;52.504;13.498;2023-04-29T08:43:47;12.30;99.90
40808;DHT22;26523;52.504;13.498;2023-04-29T08:46:14;12.30;99.90
40808;DHT22;26523;52.504;13.498;2023-04-29T08:48:41;12.30;99.90
40808;DHT22;26523;52.504;13.498;2023-04-29T08:51:07;12.30;99.90
40808;DHT22;26523;52.504;13.498;2023-04-29T08:53:32;12.30;99.90
40808;DHT22;26523;52.504;13.498;2023-04-29T08:56:03;12.20;99.90
40808;DHT22;26523;52.504;13.498;2023-04-29T08:58:33;12.20;99.90
40808;DHT22;26523;52.504;13.498;2023-04-29T09:07:34;12.10;99.90
40808;DHT22;26523;52.504;13.498;2023-04-29T09:10:01;12.10;99.90
40808;DHT22;26523;52.504;13.498;2023-04-29T09:12:28;12.00;99.90
40808;DHT22;26523;52.504;13.498;2023-04-29T09:14:55;12.00;99.90
40808;DHT22;26523;52.504;13.498;2023-04-29T09:17:43;12.00;99.90
40808;DHT22;26523;52.504;13.498;2023-04-29T09:22:47;11.90;99.90
40808;DHT22;26523;52.504;13.498;2023-04-29T09:25:13;11.80;99.90
40808;DHT22;26523;52.504;13.498;2023-04-29T09:27:39;11.80;99.90
40808;DHT22;26523;52.504;13.498;2023-04-29T09:30:05;11.70;99.90
40808;DHT22;26523;52.504;13.498;2023-04-29T09:32:31;11.70;99.90
40808;DHT22;26523;52.504;13.498;2023-04-29T09:34:57;11.70;99.90
40808;DHT22;26523;52.504;13.498;2023-04-29T09:37:24;11.70;99.90
40808;DHT22;26523;52.504;13.498;2023-04-29T09:39:50;11.70;99.90
40808;DHT22;26523;52.504;13.498;2023-04-29T09:42:16;11.60;99.90
40808;DHT22;26523;52.504;13.498;2023-04-29T09:51:14;11.60;99.90
40808;DHT22;26523;52.504;13.498;2023-04-29T09:53:40;11.60;99.90
40808;DHT22;26523;52.504;13.498;2023-04-29T09:56:06;11.60;99.90
40808;DHT22;26523;52.504;13.498;2023-04-29T09:58:33;11.70;99.90
40808;DHT22;26523;52.504;13.498;2023-04-29T10:01:03;11.70;99.90
40808;DHT22;26523;52.504;13.498;2023-04-29T10:03:34;11.90;99.90
40808;DHT22;26523;52.504;13.498;2023-04-29T10:06:00;11.90;99.90
40808;DHT22;26523;52.504;13.498;2023-04-29T10:08:28;12.00;99.90
40808;DHT22;26523;52.504;13.498;2023-04-29T10:11:02;12.00;99.90
40808;DHT22;26523;52.504;13.498;2023-04-29T10:13:29;12.00;99.90
40808;DHT22;26523;52.504;13.498;2023-04-29T10:18:51;11.90;99.90
40808;DHT22;26523;52.504;13.498;2023-04-29T10:21:20;11.90;99.90
40808;DHT22;26523;52.504;13.498;2023-04-29T10:23:49;11.90;99.90
40808;DHT22;26523;52.504;13.498;2023-04-29T10:26:16;11.90;99.90
40808;DHT22;26523;52.504;13.498;2023-04-29T10:28:43;11.80;99.90
40808;DHT22;26523;52.504;13.498;2023-04-29T10:31:11;11.80;99.90
40808;DHT22;26523;52.504;13.498;2023-04-29T10:33:39;11.90;99.90
40808;DHT22;26523;52.504;13.498;2023-04-29T10:36:08;11.90;99.90
40808;DHT22;26523;52.504;13.498;2023-04-29T10:38:39;11.90;99.90
40808;DHT22;26523;52.504;13.498;2023-04-29T10:41:15;12.00;99.90
40808;DHT22;26523;52.504;13.498;2023-04-29T10:43:43;12.20;99.90
40808;DHT22;26523;52.504;13.498;2023-04-29T10:46:16;12.30;99.90
40808;DHT22;26523;52.504;13.498;2023-04-29T10:48:49;12.30;99.90
40808;DHT22;26523;52.504;13.498;2023-04-29T10:51:34;12.30;99.90
40808;DHT22;26523;52.504;13.498;2023-04-29T10:54:22;12.70;99.90
40808;DHT22;26523;52.504;13.498;2023-04-29T10:56:51;13.00;99.90
40808;DHT22;26523;52.504;13.498;2023-04-29T11:01:52;13.40;99.90
40808;DHT22;26523;52.504;13.498;2023-04-29T11:04:22;13.30;99.90
40808;DHT22;26523;52.504;13.498;2023-04-29T11:06:52;13.20;99.90
40808;DHT22;26523;52.504;13.498;2023-04-29T11:09:19;13.00;99.90
40808;DHT22;26523;52.504;13.498;2023-04-29T11:14:29;12.90;99.90
40808;DHT22;26523;52.504;13.498;2023-04-29T11:17:07;13.00;99.90
40808;DHT22;26523;52.504;13.498;2023-04-29T11:19:35;13.10;99.90
40808;DHT22;26523;52.504;13.498;2023-04-29T11:24:34;13.40;99.90
40808;DHT22;26523;52.504;13.498;2023-04-29T11:27:02;13.90;99.90
40808;DHT22;26523;52.504;13.498;2023-04-29T11:29:31;14.50;99.90
40808;DHT22;26523;52.504;13.498;2023-04-29T11:31:59;14.90;99.90
40808;DHT22;26523;52.504;13.498;2023-04-29T11:34:24;15.30;99.90
40808;DHT22;26523;52.504;13.498;2023-04-29T11:36:50;15.60;99.90
40808;DHT22;26523;52.504;13.498;2023-04-29T11:39:16;15.50;99.90
40808;DHT22;26523;52.504;13.498;2023-04-29T11:41:42;15.40;99.90
40808;DHT22;26523;52.504;13.498;2023-04-29T11:44:07;15.20;99.90
40808;DHT22;26523;52.504;13.498;2023-04-29T11:46:34;15.30;99.90
40808;DHT22;26523;52.504;13.498;2023-04-29T11:49:00;15.30;99.90
40808;DHT22;26523;52.504;13.498;2023-04-29T11:51:26;15.20;99.90
40808;DHT22;26523;52.504;13.498;2023-04-29T11:53:53;15.40;99.90
40808;DHT22;26523;52.504;13.498;2023-04-29T11:56:22;15.40;99.90
40808;DHT22;26523;52.504;13.498;2023-04-29T11:58:54;15.60;99.90
40808;DHT22;26523;52.504;13.498;2023-04-29T12:01:21;15.60;99.90
40808;DHT22;26523;52.504;13.498;2023-04-29T12:03:48;15.80;99.90
40808;DHT22;26523;52.504;13.498;2023-04-29T12:06:14;15.90;99.90
40808;DHT22;26523;52.504;13.498;2023-04-29T12:08:40;15.90;99.90
40808;DHT22;26523;52.504;13.498;2023-04-29T12:11:06;15.80;99.90
40808;DHT22;26523;52.504;13.498;2023-04-29T12:13:33;15.70;99.90
40808;DHT22;26523;52.504;13.498;2023-04-29T12:16:01;15.40;99.90
40808;DHT22;26523;52.504;13.498;2023-04-29T12:18:28;15.20;99.90
40808;DHT22;26523;52.504;13.498;2023-04-29T12:20:55;15.00;99.90
40808;DHT22;26523;52.504;13.498;2023-04-29T12:41:56;14.70;99.90
40808;DHT22;26523;52.504;13.498;2023-04-29T12:44:22;14.70;99.90
40808;DHT22;26523;52.504;13.498;2023-04-29T12:46:56;14.90;99.90
40808;DHT22;26523;52.504;13.498;2023-04-29T12:49:33;14.80;99.90
40808;DHT22;26523;52.504;13.498;2023-04-29T12:51:58;14.80;99.90
40808;DHT22;26523;52.504;13.498;2023-04-29T12:54:24;14.80;99.90
40808;DHT22;26523;52.504;13.498;2023-04-29T12:56:50;14.70;99.90
40808;DHT22;26523;52.504;13.498;2023-04-29T12:59:15;14.50;99.90
40808;DHT22;26523;52.504;13.498;2023-04-29T13:01:50;14.40;99.90
40808;DHT22;26523;52.504;13.498;2023-04-29T13:04:16;14.50;99.90
40808;DHT22;26523;52.504;13.498;2023-04-29T13:06:41;14.70;99.90
40808;DHT22;26523;52.504;13.498;2023-04-29T13:09:08;14.70;99.90
40808;DHT22;26523;52.504;13.498;2023-04-29T13:11:38;15.00;99.90
40808;DHT22;26523;52.504;13.498;2023-04-29T13:14:04;15.20;99.90
40808;DHT22;26523;52.504;13.498;2023-04-29T13:16:34;15.30;99.90
40808;DHT22;26523;52.504;13.498;2023-04-29T13:19:00;15.60;99.90
40808;DHT22;26523;52.504;13.498;2023-04-29T13:21:26;15.60;99.90
40808;DHT22;26523;52.504;13.498;2023-04-29T13:23:53;15.80;99.90
40808;DHT22;26523;52.504;13.498;2023-04-29T13:26:18;15.90;99.90
40808;DHT22;26523;52.504;13.498;2023-04-29T13:28:44;16.00;99.90
40808;DHT22;26523;52.504;13.498;2023-04-29T13:31:10;16.20;99.90
40808;DHT22;26523;52.504;13.498;2023-04-29T13:33:36;16.30;99.90
40808;DHT22;26523;52.504;13.498;2023-04-29T13:36:02;16.40;99.90
40808;DHT22;26523;52.504;13.498;2023-04-29T13:38:27;16.50;99.90
40808;DHT22;26523;52.504;13.498;2023-04-29T13:40:53;16.70;99.90
40808;DHT22;26523;52.504;13.498;2023-04-29T13:43:19;16.70;99.90
40808;DHT22;26523;52.504;13.498;2023-04-29T13:45:44;16.60;99.90
40808;DHT22;26523;52.504;13.498;2023-04-29T13:48:10;16.70;99.90
40808;DHT22;26523;52.504;13.498;2023-04-29T13:50:35;16.70;99.90
40808;DHT22;26523;52.504;13.498;2023-04-29T13:53:01;16.70;99.90
40808;DHT22;26523;52.504;13.498;2023-04-29T13:55:27;16.70;99.90
40808;DHT22;26523;52.504;13.498;2023-04-29T13:57:54;16.40;99.90
40808;DHT22;26523;52.504;13.498;2023-04-29T14:00:20;16.40;99.90
40808;DHT22;26523;52.504;13.498;2023-04-29T14:02:45;16.50;99.90
40808;DHT22;26523;52.504;13.498;2023-04-29T14:05:12;16.30;99.90
40808;DHT22;26523;52.504;13.498;2023-04-29T14:07:37;16.30;99.90
40808;DHT22;26523;52.504;13.498;2023-04-29T14:10:03;16.20;99.90
40808;DHT22;26523;52.504;13.498;2023-04-29T14:12:29;16.30;99.90
40808;DHT22;26523;52.504;13.498;2023-04-29T14:14:55;16.40;99.90
40808;DHT22;26523;52.504;13.498;2023-04-29T14:17:21;16.50;99.90
40808;DHT22;26523;52.504;13.498;2023-04-29T14:19:47;16.40;99.90
40808;DHT22;26523;52.504;13.498;2023-04-29T14:22:13;16.40;99.90
40808;DHT22;26523;52.504;13.498;2023-04-29T14:24:38;16.30;99.90
40808;DHT22;26523;52.504;13.498;2023-04-29T14:27:04;16.20;99.90
40808;DHT22;26523;52.504;13.498;2023-04-29T14:29:31;16.00;99.90
40808;DHT22;26523;52.504;13.498;2023-04-29T14:31:56;15.90;99.90
40808;DHT22;26523;52.504;13.498;2023-04-29T14:34:22;15.90;99.90
40808;DHT22;26523;52.504;13.498;2023-04-29T14:36:48;15.90;99.90
40808;DHT22;26523;52.504;13.498;2023-04-29T14:39:13;15.80;99.90
40808;DHT22;26523;52.504;13.498;2023-04-29T14:41:39;15.70;99.90
40808;DHT22;26523;52.504;13.498;2023-04-29T14:44:05;15.80;99.90
40808;DHT22;26523;52.504;13.498;2023-04-29T14:46:31;15.80;99.90
40808;DHT22;26523;52.504;13.498;2023-04-29T14:49:01;16.00;99.90
40808;DHT22;26523;52.504;13.498;2023-04-29T14:51:28;16.20;99.90
40808;DHT22;26523;52.504;13.498;2023-04-29T14:53:55;16.40;99.90
40808;DHT22;26523;52.504;13.498;2023-04-29T14:56:21;16.60;99.90
40808;DHT22;26523;52.504;13.498;2023-04-29T14:58:47;16.60;99.90
40808;DHT22;26523;52.504;13.498;2023-04-29T15:01:12;16.50;99.90
40808;DHT22;26523;52.504;13.498;2023-04-29T15:03:38;16.60;99.90
40808;DHT22;26523;52.504;13.498;2023-04-29T15:06:03;16.60;99.90
40808;DHT22;26523;52.504;13.498;2023-04-29T15:08:30;16.40;99.90
40808;DHT22;26523;52.504;13.498;2023-04-29T15:10:56;16.30;99.90
40808;DHT22;26523;52.504;13.498;2023-04-29T15:13:22;16.30;99.90
40808;DHT22;26523;52.504;13.498;2023-04-29T15:15:50;16.20;99.90
40808;DHT22;26523;52.504;13.498;2023-04-29T15:18:16;16.40;99.90
40808;DHT22;26523;52.504;13.498;2023-04-29T15:20:42;16.40;99.90
40808;DHT22;26523;52.504;13.498;2023-04-29T15:23:07;16.20;99.90
40808;DHT22;26523;52.504;13.498;2023-04-29T15:28:55;16.00;99.90
40808;DHT22;26523;52.504;13.498;2023-04-29T15:31:21;16.10;99.90
40808;DHT22;26523;52.504;13.498;2023-04-29T15:37:08;16.00;99.90
40808;DHT22;26523;52.504;13.498;2023-04-29T15:39:34;15.90;99.90
40808;DHT22;26523;52.504;13.498;2023-04-29T15:42:01;15.80;99.90
40808;DHT22;26523;52.504;13.498;2023-04-29T15:44:28;15.70;99.90
40808;DHT22;26523;52.504;13.498;2023-04-29T15:46:55;15.60;99.90
40808;DHT22;26523;52.504;13.498;2023-04-29T15:49:21;15.40;99.90
40808;DHT22;26523;52.504;13.498;2023-04-29T15:51:46;15.20;99.90
40808;DHT22;26523;52.504;13.498;2023-04-29T15:54:12;15.10;99.90
40808;DHT22;26523;52.504;13.498;2023-04-29T15:56:38;15.00;99.90
40808;DHT22;26523;52.504;13.498;2023-04-29T15:59:04;14.80;99.90
40808;DHT22;26523;52.504;13.498;2023-04-29T16:01:29;14.70;99.90
40808;DHT22;26523;52.504;13.498;2023-04-29T16:03:55;14.70;99.90
40808;DHT22;26523;52.504;13.498;2023-04-29T16:06:21;14.60;99.90
40808;DHT22;26523;52.504;13.498;2023-04-29T16:08:46;14.60;99.90
40808;DHT22;26523;52.504;13.498;2023-04-29T16:11:12;14.50;99.90
40808;DHT22;26523;52.504;13.498;2023-04-29T16:13:38;14.60;99.90
40808;DHT22;26523;52.504;13.498;2023-04-29T16:16:03;14.40;99.90
40808;DHT22;26523;52.504;13.498;2023-04-29T16:22:03;14.30;99.90
40808;DHT22;26523;52.504;13.498;2023-04-29T16:30:54;14.70;99.90
40808;DHT22;26523;52.504;13.498;2023-04-29T16:33:20;14.80;99.90
40808;DHT22;26523;52.504;13.498;2023-04-29T16:35:45;14.90;99.90
40808;DHT22;26523;52.504;13.498;2023-04-29T16:44:55;14.80;99.90
40808;DHT22;26523;52.504;13.498;2023-04-29T17:02:15;14.80;99.90
40808;DHT22;26523;52.504;13.498;2023-04-29T17:04:58;14.80;99.90
40808;DHT22;26523;52.504;13.498;2023-04-29T17:07:24;14.80;99.90
40808;DHT22;26523;52.504;13.498;2023-04-29T17:09:50;14.70;99.90
40808;DHT22;26523;52.504;13.498;2023-04-29T17:12:15;14.60;99.90
40808;DHT22;26523;52.504;13.498;2023-04-29T17:14:41;14.50;99.90
40808;DHT22;26523;52.504;13.498;2023-04-29T17:17:10;14.50;99.90
40808;DHT22;26523;52.504;13.498;2023-04-29T17:19:36;14.50;99.90
40808;DHT22;26523;52.504;13.498;2023-04-29T17:22:08;14.50;99.90
40808;DHT22;26523;52.504;13.498;2023-04-29T17:24:40;14.40;99.90
40808;DHT22;26523;52.504;13.498;2023-04-29T17:27:09;14.30;99.90
40808;DHT22;26523;52.504;13.498;2023-04-29T17:29:36;14.20;99.90
40808;DHT22;26523;52.504;13.498;2023-04-29T17:32:02;14.10;99.90
40808;DHT22;26523;52.504;13.498;2023-04-29T17:34:38;14.00;99.90
40808;DHT22;26523;52.504;13.498;2023-04-29T17:37:04;13.80;99.90
40808;DHT22;26523;52.504;13.498;2023-04-29T17:39:31;13.70;99.90
40808;DHT22;26523;52.504;13.498;2023-04-29T17:41:57;13.60;99.90
40808;DHT22;26523;52.504;13.498;2023-04-29T17:44:23;13.50;99.90
40808;DHT22;26523;52.504;13.498;2023-04-29T17:46:48;13.40;99.90
40808;DHT22;26523;52.504;13.498;2023-04-29T17:49:14;13.30;99.90
40808;DHT22;26523;52.504;13.498;2023-04-29T17:51:40;13.20;99.90
40808;DHT22;26523;52.504;13.498;2023-04-29T17:54:06;13.10;99.90
40808;DHT22;26523;52.504;13.498;2023-04-29T17:56:33;13.10;99.90
40808;DHT22;26523;52.504;13.498;2023-04-29T17:59:03;13.00;99.90
40808;DHT22;26523;52.504;13.498;2023-04-29T18:01:36;13.00;99.90
40808;DHT22;26523;52.504;13.498;2023-04-29T18:04:02;13.00;99.90
40808;DHT22;26523;52.504;13.498;2023-04-29T18:06:28;12.90;99.90
40808;DHT22;26523;52.504;13.498;2023-04-29T18:08:55;12.90;99.90
40808;DHT22;26523;52.504;13.498;2023-04-29T18:11:20;12.90;99.90
40808;DHT22;26523;52.504;13.498;2023-04-29T18:13:46;12.90;99.90
40808;DHT22;26523;52.504;13.498;2023-04-29T18:16:12;12.90;99.90